sensor_id;sensor_type;location;lat;lon;timestamp;pressure;altitude;pressure_sealevel;temperature;humidity
15670;BME280;18524;45.190;5.732;2022-12-08T00:01:48;98928.72;;;5.69;72.42
15670;BME280;18524;45.190;5.732;2022-12-08T00:06:41;98921.22;;;5.64;73.88
15670;BME280;18524;45.190;5.732;2022-12-08T00:11:58;98915.31;;;5.75;73.45
15670;BME280;18524;45.190;5.732;2022-12-08T00:16:49;98908.72;;;5.69;72.29
15670;BME280;18524;45.190;5.732;2022-12-08T00:21:39;98899.03;;;5.58;71.55
15670;BME280;18524;45.190;5.732;2022-12-08T00:26:29;98898.38;;;5.55;72.36
15670;BME280;18524;45.190;5.732;2022-12-08T00:31:20;98894.81;;;5.56;74.06
15670;BME280;18524;45.190;5.732;2022-12-08T00:36:12;98881.78;;;5.70;71.98
15670;BME280;18524;45.190;5.732;2022-12-08T00:41:07;98877.72;;;5.66;72.69
15670;BME280;18524;45.190;5.732;2022-12-08T00:45:59;98860.66;;;5.62;71.09
15670;BME280;18524;45.190;5.732;2022-12-08T00:50:49;98858.41;;;5.56;72.10
15670;BME280;18524;45.190;5.732;2022-12-08T00:55:40;98865.25;;;5.44;71.27
15670;BME280;18524;45.190;5.732;2022-12-08T01:00:30;98869.19;;;5.37;72.62
15670;BME280;18524;45.190;5.732;2022-12-08T01:05:20;98873.44;;;5.38;73.64
15670;BME280;18524;45.190;5.732;2022-12-08T01:10:11;98877.16;;;5.34;73.64
15670;BME280;18524;45.190;5.732;2022-12-08T01:15:01;98879.13;;;5.30;73.61
15670;BME280;18524;45.190;5.732;2022-12-08T01:19:52;98886.44;;;5.38;73.26
15670;BME280;18524;45.190;5.732;2022-12-08T01:24:42;98884.03;;;5.35;72.56
15670;BME280;18524;45.190;5.732;2022-12-08T01:29:32;98878.31;;;5.30;73.27
15670;BME280;18524;45.190;5.732;2022-12-08T01:34:23;98887.22;;;5.26;73.41
15670;BME280;18524;45.190;5.732;2022-12-08T01:39:16;98876.88;;;5.39;73.78
15670;BME280;18524;45.190;5.732;2022-12-08T01:49:11;98872.81;;;5.34;74.41
15670;BME280;18524;45.190;5.732;2022-12-08T01:54:04;98872.41;;;5.41;73.71
15670;BME280;18524;45.190;5.732;2022-12-08T01:58:56;98860.44;;;5.38;73.59
15670;BME280;18524;45.190;5.732;2022-12-08T02:03:58;98866.13;;;5.30;74.06
15670;BME280;18524;45.190;5.732;2022-12-08T02:08:50;98863.88;;;5.39;73.30
15670;BME280;18524;45.190;5.732;2022-12-08T02:13:43;98861.88;;;5.15;72.51
15670;BME280;18524;45.190;5.732;2022-12-08T02:24:23;98849.16;;;5.25;73.45
15670;BME280;18524;45.190;5.732;2022-12-08T02:29:31;98849.31;;;5.36;73.67
15670;BME280;18524;45.190;5.732;2022-12-08T02:34:28;98850.00;;;5.25;73.19
15670;BME280;18524;45.190;5.732;2022-12-08T02:44:34;98845.56;;;5.13;73.75
15670;BME280;18524;45.190;5.732;2022-12-08T02:49:28;98839.81;;;5.08;73.76
15670;BME280;18524;45.190;5.732;2022-12-08T02:54:19;98837.16;;;4.95;73.77
15670;BME280;18524;45.190;5.732;2022-12-08T02:59:12;98829.16;;;4.98;74.12
15670;BME280;18524;45.190;5.732;2022-12-08T03:04:27;98825.09;;;4.94;74.25
15670;BME280;18524;45.190;5.732;2022-12-08T03:14:32;98804.16;;;4.83;74.31
15670;BME280;18524;45.190;5.732;2022-12-08T03:19:31;98802.41;;;4.84;74.36
15670;BME280;18524;45.190;5.732;2022-12-08T03:24:23;98793.00;;;4.81;74.83
15670;BME280;18524;45.190;5.732;2022-12-08T03:29:14;98785.59;;;4.89;74.94
15670;BME280;18524;45.190;5.732;2022-12-08T03:34:05;98789.84;;;4.90;74.04
15670;BME280;18524;45.190;5.732;2022-12-08T03:38:56;98792.75;;;4.86;73.60
15670;BME280;18524;45.190;5.732;2022-12-08T03:43:52;98775.78;;;4.66;75.36
15670;BME280;18524;45.190;5.732;2022-12-08T03:48:43;98769.19;;;4.75;74.97
15670;BME280;18524;45.190;5.732;2022-12-08T03:53:34;98776.97;;;4.75;74.63
15670;BME280;18524;45.190;5.732;2022-12-08T03:58:24;98770.84;;;4.76;73.94
15670;BME280;18524;45.190;5.732;2022-12-08T04:03:15;98770.84;;;4.76;74.20
15670;BME280;18524;45.190;5.732;2022-12-08T04:08:05;98759.09;;;4.70;73.89
15670;BME280;18524;45.190;5.732;2022-12-08T04:12:56;98760.84;;;4.69;73.79
15670;BME280;18524;45.190;5.732;2022-12-08T04:17:46;98753.28;;;4.52;75.21
15670;BME280;18524;45.190;5.732;2022-12-08T04:22:36;98750.59;;;4.54;73.75
15670;BME280;18524;45.190;5.732;2022-12-08T04:27:27;98753.84;;;4.57;74.20
15670;BME280;18524;45.190;5.732;2022-12-08T04:32:17;98745.84;;;4.60;74.39
15670;BME280;18524;45.190;5.732;2022-12-08T04:37:07;98755.94;;;4.65;74.08
15670;BME280;18524;45.190;5.732;2022-12-08T04:41:58;98752.81;;;4.60;72.74
15670;BME280;18524;45.190;5.732;2022-12-08T04:46:48;98743.84;;;4.51;73.81
15670;BME280;18524;45.190;5.732;2022-12-08T04:51:39;98740.13;;;4.55;73.95
15670;BME280;18524;45.190;5.732;2022-12-08T04:56:29;98742.38;;;4.47;74.03
15670;BME280;18524;45.190;5.732;2022-12-08T05:01:19;98744.91;;;4.61;74.96
15670;BME280;18524;45.190;5.732;2022-12-08T05:06:13;98741.59;;;4.59;72.62
15670;BME280;18524;45.190;5.732;2022-12-08T05:11:05;98736.78;;;4.53;72.99
15670;BME280;18524;45.190;5.732;2022-12-08T05:16:04;98730.41;;;4.71;72.40
15670;BME280;18524;45.190;5.732;2022-12-08T05:20:55;98721.16;;;4.67;73.08
15670;BME280;18524;45.190;5.732;2022-12-08T05:25:46;98725.88;;;4.75;72.00
15670;BME280;18524;45.190;5.732;2022-12-08T05:30:36;98722.44;;;4.75;71.97
15670;BME280;18524;45.190;5.732;2022-12-08T05:35:26;98715.28;;;4.51;72.46
15670;BME280;18524;45.190;5.732;2022-12-08T05:40:17;98714.81;;;4.45;73.63
15670;BME280;18524;45.190;5.732;2022-12-08T05:45:08;98712.28;;;4.57;73.19
15670;BME280;18524;45.190;5.732;2022-12-08T05:49:58;98701.56;;;4.49;73.06
15670;BME280;18524;45.190;5.732;2022-12-08T05:54:49;98704.69;;;4.54;73.03
15670;BME280;18524;45.190;5.732;2022-12-08T05:59:39;98704.88;;;4.51;72.90
15670;BME280;18524;45.190;5.732;2022-12-08T06:04:29;98701.72;;;4.60;73.17
15670;BME280;18524;45.190;5.732;2022-12-08T06:09:20;98697.00;;;4.53;72.54
15670;BME280;18524;45.190;5.732;2022-12-08T06:14:11;98703.03;;;4.39;73.55
15670;BME280;18524;45.190;5.732;2022-12-08T06:19:01;98694.50;;;4.51;73.72
15670;BME280;18524;45.190;5.732;2022-12-08T06:23:52;98705.53;;;4.40;72.93
15670;BME280;18524;45.190;5.732;2022-12-08T06:28:43;98698.78;;;4.38;72.87
15670;BME280;18524;45.190;5.732;2022-12-08T06:33:33;98699.75;;;4.23;73.73
15670;BME280;18524;45.190;5.732;2022-12-08T06:38:24;98706.59;;;4.24;74.26
15670;BME280;18524;45.190;5.732;2022-12-08T06:43:14;98706.31;;;4.28;73.77
15670;BME280;18524;45.190;5.732;2022-12-08T06:48:05;98702.78;;;4.29;73.64
15670;BME280;18524;45.190;5.732;2022-12-08T06:52:55;98698.13;;;4.34;73.41
15670;BME280;18524;45.190;5.732;2022-12-08T06:57:45;98697.53;;;4.17;72.79
15670;BME280;18524;45.190;5.732;2022-12-08T07:02:36;98700.66;;;4.22;72.50
15670;BME280;18524;45.190;5.732;2022-12-08T07:07:26;98699.38;;;4.15;72.51
15670;BME280;18524;45.190;5.732;2022-12-08T07:12:17;98703.06;;;4.25;72.22
15670;BME280;18524;45.190;5.732;2022-12-08T07:17:07;98696.41;;;4.21;71.70
15670;BME280;18524;45.190;5.732;2022-12-08T07:21:57;98699.38;;;4.15;71.68
15670;BME280;18524;45.190;5.732;2022-12-08T07:26:48;98698.56;;;4.14;71.54
15670;BME280;18524;45.190;5.732;2022-12-08T07:31:38;98704.56;;;4.15;71.93
15670;BME280;18524;45.190;5.732;2022-12-08T07:36:29;98696.59;;;4.18;72.72
15670;BME280;18524;45.190;5.732;2022-12-08T07:41:22;98693.63;;;4.24;71.19
15670;BME280;18524;45.190;5.732;2022-12-08T07:46:14;98695.72;;;4.31;70.58
15670;BME280;18524;45.190;5.732;2022-12-08T07:51:05;98691.75;;;4.26;72.55
15670;BME280;18524;45.190;5.732;2022-12-08T07:55:56;98686.38;;;4.29;71.54
15670;BME280;18524;45.190;5.732;2022-12-08T08:00:46;98682.28;;;4.39;71.89
15670;BME280;18524;45.190;5.732;2022-12-08T08:05:37;98691.50;;;4.57;71.89
15670;BME280;18524;45.190;5.732;2022-12-08T08:10:27;98679.84;;;4.77;69.89
15670;BME280;18524;45.190;5.732;2022-12-08T08:15:18;98680.94;;;4.87;69.01
15670;BME280;18524;45.190;5.732;2022-12-08T08:20:10;98675.19;;;4.82;69.44
15670;BME280;18524;45.190;5.732;2022-12-08T08:25:01;98678.38;;;5.00;68.65
15670;BME280;18524;45.190;5.732;2022-12-08T08:29:52;98669.44;;;5.17;68.05
15670;BME280;18524;45.190;5.732;2022-12-08T08:34:42;98666.38;;;5.24;68.80
15670;BME280;18524;45.190;5.732;2022-12-08T08:39:33;98657.31;;;5.43;68.24
15670;BME280;18524;45.190;5.732;2022-12-08T08:44:23;98651.94;;;5.71;68.50
15670;BME280;18524;45.190;5.732;2022-12-08T08:49:13;98649.50;;;5.93;66.55
15670;BME280;18524;45.190;5.732;2022-12-08T08:54:04;98649.44;;;5.95;64.66
15670;BME280;18524;45.190;5.732;2022-12-08T08:58:54;98646.38;;;6.14;64.96
15670;BME280;18524;45.190;5.732;2022-12-08T09:03:45;98641.50;;;6.09;64.94
15670;BME280;18524;45.190;5.732;2022-12-08T09:08:36;98646.53;;;6.36;63.18
15670;BME280;18524;45.190;5.732;2022-12-08T09:13:26;98646.25;;;6.15;63.09
15670;BME280;18524;45.190;5.732;2022-12-08T09:18:17;98643.69;;;6.63;65.38
15670;BME280;18524;45.190;5.732;2022-12-08T09:23:07;98645.88;;;6.69;62.63
15670;BME280;18524;45.190;5.732;2022-12-08T09:27:57;98640.38;;;6.85;61.62
15670;BME280;18524;45.190;5.732;2022-12-08T09:32:48;98645.63;;;6.96;61.17
15670;BME280;18524;45.190;5.732;2022-12-08T09:37:38;98643.22;;;6.93;61.02
15670;BME280;18524;45.190;5.732;2022-12-08T09:42:40;98638.69;;;7.08;60.76
15670;BME280;18524;45.190;5.732;2022-12-08T09:47:39;98644.78;;;6.96;60.01
15670;BME280;18524;45.190;5.732;2022-12-08T09:52:57;98634.13;;;6.99;60.73
15670;BME280;18524;45.190;5.732;2022-12-08T09:57:59;98627.44;;;7.07;61.16
15670;BME280;18524;45.190;5.732;2022-12-08T10:02:50;98613.75;;;7.72;61.49
15670;BME280;18524;45.190;5.732;2022-12-08T10:08:07;98614.25;;;7.89;59.17
15670;BME280;18524;45.190;5.732;2022-12-08T10:13:10;98595.47;;;7.72;58.73
15670;BME280;18524;45.190;5.732;2022-12-08T10:18:15;98582.41;;;7.28;59.45
15670;BME280;18524;45.190;5.732;2022-12-08T10:28:02;98574.00;;;7.80;58.95
15670;BME280;18524;45.190;5.732;2022-12-08T10:32:53;98567.59;;;7.73;58.52
15670;BME280;18524;45.190;5.732;2022-12-08T10:38:00;98561.56;;;7.50;60.44
15670;BME280;18524;45.190;5.732;2022-12-08T10:42:55;98562.97;;;7.76;60.45
15670;BME280;18524;45.190;5.732;2022-12-08T10:53:00;98553.97;;;7.58;60.90
15670;BME280;18524;45.190;5.732;2022-12-08T10:57:51;98540.81;;;7.82;60.37
15670;BME280;18524;45.190;5.732;2022-12-08T11:07:49;98533.69;;;7.39;60.22
15670;BME280;18524;45.190;5.732;2022-12-08T11:12:42;98519.59;;;7.19;60.24
15670;BME280;18524;45.190;5.732;2022-12-08T11:17:37;98510.09;;;7.18;61.80
15670;BME280;18524;45.190;5.732;2022-12-08T11:22:33;98513.44;;;7.20;61.53
15670;BME280;18524;45.190;5.732;2022-12-08T11:27:24;98509.59;;;7.02;61.64
15670;BME280;18524;45.190;5.732;2022-12-08T11:32:14;98506.91;;;7.37;60.40
15670;BME280;18524;45.190;5.732;2022-12-08T11:37:11;98501.81;;;7.13;62.04
15670;BME280;18524;45.190;5.732;2022-12-08T11:42:07;98484.00;;;7.41;60.63
15670;BME280;18524;45.190;5.732;2022-12-08T11:47:11;98461.88;;;7.24;61.35
15670;BME280;18524;45.190;5.732;2022-12-08T11:57:13;98445.38;;;7.46;62.07
15670;BME280;18524;45.190;5.732;2022-12-08T12:02:22;98429.66;;;7.68;60.46
15670;BME280;18524;45.190;5.732;2022-12-08T12:07:49;98431.47;;;7.57;60.48
15670;BME280;18524;45.190;5.732;2022-12-08T12:23:18;98414.06;;;7.46;61.13
15670;BME280;18524;45.190;5.732;2022-12-08T12:28:12;98396.94;;;7.64;61.09
15670;BME280;18524;45.190;5.732;2022-12-08T12:33:04;98378.03;;;7.83;59.65
15670;BME280;18524;45.190;5.732;2022-12-08T12:38:29;98371.66;;;7.65;60.90
15670;BME280;18524;45.190;5.732;2022-12-08T12:43:36;98358.44;;;7.77;60.61
15670;BME280;18524;45.190;5.732;2022-12-08T12:48:27;98341.47;;;7.83;59.88
15670;BME280;18524;45.190;5.732;2022-12-08T13:03:16;98346.69;;;7.51;60.80
15670;BME280;18524;45.190;5.732;2022-12-08T13:08:18;98330.69;;;7.56;60.86
15670;BME280;18524;45.190;5.732;2022-12-08T13:18:06;98324.81;;;7.31;61.28
15670;BME280;18524;45.190;5.732;2022-12-08T13:23:25;98307.31;;;7.22;61.86
15670;BME280;18524;45.190;5.732;2022-12-08T13:38:14;98301.44;;;7.09;62.58
15670;BME280;18524;45.190;5.732;2022-12-08T13:48:13;98286.94;;;7.16;63.22
15670;BME280;18524;45.190;5.732;2022-12-08T13:53:20;98289.81;;;7.13;62.90
15670;BME280;18524;45.190;5.732;2022-12-08T13:58:33;98294.16;;;7.24;61.76
15670;BME280;18524;45.190;5.732;2022-12-08T14:03:24;98274.88;;;7.15;62.51
15670;BME280;18524;45.190;5.732;2022-12-08T14:08:29;98270.47;;;7.15;60.14
15670;BME280;18524;45.190;5.732;2022-12-08T14:13:23;98263.34;;;7.17;60.63
15670;BME280;18524;45.190;5.732;2022-12-08T14:18:25;98260.19;;;7.03;60.94
15670;BME280;18524;45.190;5.732;2022-12-08T14:23:16;98256.63;;;7.04;62.05
15670;BME280;18524;45.190;5.732;2022-12-08T14:28:09;98254.38;;;7.10;61.23
15670;BME280;18524;45.190;5.732;2022-12-08T14:33:01;98246.19;;;7.15;61.69
15670;BME280;18524;45.190;5.732;2022-12-08T14:37:58;98234.25;;;7.01;62.83
15670;BME280;18524;45.190;5.732;2022-12-08T14:42:50;98233.03;;;7.05;63.26
15670;BME280;18524;45.190;5.732;2022-12-08T14:47:41;98248.91;;;7.13;62.83
15670;BME280;18524;45.190;5.732;2022-12-08T14:52:32;98251.06;;;7.08;63.92
15670;BME280;18524;45.190;5.732;2022-12-08T14:57:28;98251.59;;;7.23;63.87
15670;BME280;18524;45.190;5.732;2022-12-08T15:02:25;98250.41;;;7.27;63.73
15670;BME280;18524;45.190;5.732;2022-12-08T15:07:19;98261.97;;;7.02;64.52
15670;BME280;18524;45.190;5.732;2022-12-08T15:17:01;98239.25;;;6.93;66.45
15670;BME280;18524;45.190;5.732;2022-12-08T15:21:53;98234.03;;;6.93;66.21
15670;BME280;18524;45.190;5.732;2022-12-08T15:26:46;98232.47;;;6.70;68.15
15670;BME280;18524;45.190;5.732;2022-12-08T15:31:37;98218.25;;;6.51;69.42
15670;BME280;18524;45.190;5.732;2022-12-08T15:36:27;98226.88;;;6.74;68.62
15670;BME280;18524;45.190;5.732;2022-12-08T15:41:18;98227.94;;;6.72;69.03
15670;BME280;18524;45.190;5.732;2022-12-08T15:46:08;98227.03;;;6.50;70.50
15670;BME280;18524;45.190;5.732;2022-12-08T15:50:59;98218.50;;;6.48;71.56
15670;BME280;18524;45.190;5.732;2022-12-08T15:55:49;98225.09;;;6.64;70.82
15670;BME280;18524;45.190;5.732;2022-12-08T16:00:40;98228.91;;;6.71;70.58
15670;BME280;18524;45.190;5.732;2022-12-08T16:05:30;98236.47;;;6.63;71.69
15670;BME280;18524;45.190;5.732;2022-12-08T16:10:23;98239.31;;;6.71;71.78
15670;BME280;18524;45.190;5.732;2022-12-08T16:15:13;98249.50;;;6.74;71.60
15670;BME280;18524;45.190;5.732;2022-12-08T16:20:06;98256.00;;;6.68;71.65
15670;BME280;18524;45.190;5.732;2022-12-08T16:24:57;98261.22;;;6.79;72.15
15670;BME280;18524;45.190;5.732;2022-12-08T16:29:48;98255.22;;;7.00;72.43
15670;BME280;18524;45.190;5.732;2022-12-08T16:34:39;98250.38;;;7.06;71.16
15670;BME280;18524;45.190;5.732;2022-12-08T16:39:30;98228.50;;;7.18;71.43
15670;BME280;18524;45.190;5.732;2022-12-08T16:44:20;98221.69;;;7.06;71.00
15670;BME280;18524;45.190;5.732;2022-12-08T16:49:11;98220.97;;;7.04;70.97
15670;BME280;18524;45.190;5.732;2022-12-08T16:54:01;98216.44;;;7.17;69.88
15670;BME280;18524;45.190;5.732;2022-12-08T16:58:51;98195.41;;;6.98;70.31
15670;BME280;18524;45.190;5.732;2022-12-08T17:03:42;98188.44;;;6.87;70.53
15670;BME280;18524;45.190;5.732;2022-12-08T17:08:34;98181.66;;;6.64;72.02
15670;BME280;18524;45.190;5.732;2022-12-08T17:13:24;98169.81;;;6.71;72.59
15670;BME280;18524;45.190;5.732;2022-12-08T17:18:14;98177.63;;;6.60;73.17
15670;BME280;18524;45.190;5.732;2022-12-08T17:23:05;98161.28;;;6.58;73.28
15670;BME280;18524;45.190;5.732;2022-12-08T17:27:55;98152.66;;;6.57;73.02
15670;BME280;18524;45.190;5.732;2022-12-08T17:32:45;98158.69;;;6.58;73.27
15670;BME280;18524;45.190;5.732;2022-12-08T17:37:36;98152.03;;;6.33;73.92
15670;BME280;18524;45.190;5.732;2022-12-08T17:42:26;98149.53;;;6.20;74.60
15670;BME280;18524;45.190;5.732;2022-12-08T17:47:17;98150.47;;;6.31;74.84
15670;BME280;18524;45.190;5.732;2022-12-08T17:52:07;98147.97;;;6.40;74.35
15670;BME280;18524;45.190;5.732;2022-12-08T17:56:59;98138.63;;;6.38;74.21
15670;BME280;18524;45.190;5.732;2022-12-08T18:01:55;98138.06;;;6.23;74.76
15670;BME280;18524;45.190;5.732;2022-12-08T18:06:45;98130.69;;;6.39;74.65
15670;BME280;18524;45.190;5.732;2022-12-08T18:11:36;98130.00;;;6.26;75.44
15670;BME280;18524;45.190;5.732;2022-12-08T18:16:26;98128.63;;;6.11;76.31
15670;BME280;18524;45.190;5.732;2022-12-08T18:21:17;98119.75;;;6.13;76.88
15670;BME280;18524;45.190;5.732;2022-12-08T18:26:10;98115.03;;;6.07;76.70
15670;BME280;18524;45.190;5.732;2022-12-08T18:31:00;98118.75;;;6.25;76.10
15670;BME280;18524;45.190;5.732;2022-12-08T18:35:51;98110.81;;;6.38;75.45
15670;BME280;18524;45.190;5.732;2022-12-08T18:40:42;98103.00;;;6.38;74.84
15670;BME280;18524;45.190;5.732;2022-12-08T18:45:32;98117.09;;;6.24;75.08
15670;BME280;18524;45.190;5.732;2022-12-08T18:50:25;98105.75;;;6.37;76.40
15670;BME280;18524;45.190;5.732;2022-12-08T18:55:16;98106.31;;;6.40;74.52
15670;BME280;18524;45.190;5.732;2022-12-08T19:00:08;98107.34;;;6.49;74.24
15670;BME280;18524;45.190;5.732;2022-12-08T19:04:59;98090.91;;;6.48;73.47
15670;BME280;18524;45.190;5.732;2022-12-08T19:09:50;98082.75;;;6.42;73.11
15670;BME280;18524;45.190;5.732;2022-12-08T19:14:40;98089.03;;;6.39;73.51
15670;BME280;18524;45.190;5.732;2022-12-08T19:19:31;98085.94;;;6.45;73.40
15670;BME280;18524;45.190;5.732;2022-12-08T19:24:22;98079.66;;;6.48;72.88
15670;BME280;18524;45.190;5.732;2022-12-08T19:29:13;98082.13;;;6.49;74.01
15670;BME280;18524;45.190;5.732;2022-12-08T19:34:04;98073.31;;;6.62;71.96
15670;BME280;18524;45.190;5.732;2022-12-08T19:38:55;98064.28;;;6.66;71.61
15670;BME280;18524;45.190;5.732;2022-12-08T19:44:04;98049.09;;;6.50;72.43
15670;BME280;18524;45.190;5.732;2022-12-08T19:49:13;98058.81;;;6.48;72.21
15670;BME280;18524;45.190;5.732;2022-12-08T19:54:03;98054.63;;;6.36;74.11
15670;BME280;18524;45.190;5.732;2022-12-08T19:58:54;98055.78;;;6.43;72.70
15670;BME280;18524;45.190;5.732;2022-12-08T20:03:44;98053.19;;;6.32;73.52
15670;BME280;18524;45.190;5.732;2022-12-08T20:08:35;98066.13;;;6.22;74.49
15670;BME280;18524;45.190;5.732;2022-12-08T20:13:25;98052.97;;;6.23;74.54
15670;BME280;18524;45.190;5.732;2022-12-08T20:18:37;98050.81;;;6.40;73.58
15670;BME280;18524;45.190;5.732;2022-12-08T20:23:27;98050.81;;;6.28;74.60
15670;BME280;18524;45.190;5.732;2022-12-08T20:28:18;98046.81;;;6.36;74.34
15670;BME280;18524;45.190;5.732;2022-12-08T20:33:11;98050.50;;;6.33;73.21
15670;BME280;18524;45.190;5.732;2022-12-08T20:38:02;98066.31;;;6.30;72.42
15670;BME280;18524;45.190;5.732;2022-12-08T20:42:52;98066.09;;;6.33;72.78
15670;BME280;18524;45.190;5.732;2022-12-08T20:47:43;98076.63;;;6.32;73.31
15670;BME280;18524;45.190;5.732;2022-12-08T20:52:33;98069.41;;;6.24;74.62
15670;BME280;18524;45.190;5.732;2022-12-08T20:57:24;98076.84;;;6.28;74.90
15670;BME280;18524;45.190;5.732;2022-12-08T21:02:14;98080.09;;;6.21;76.39
15670;BME280;18524;45.190;5.732;2022-12-08T21:07:05;98069.34;;;6.14;79.26
15670;BME280;18524;45.190;5.732;2022-12-08T21:11:57;98072.31;;;6.10;81.92
15670;BME280;18524;45.190;5.732;2022-12-08T21:16:48;98068.13;;;6.18;82.53
15670;BME280;18524;45.190;5.732;2022-12-08T21:21:43;98062.06;;;5.97;85.73
15670;BME280;18524;45.190;5.732;2022-12-08T21:26:34;98067.94;;;5.88;87.22
15670;BME280;18524;45.190;5.732;2022-12-08T21:31:25;98070.06;;;5.94;90.01
15670;BME280;18524;45.190;5.732;2022-12-08T21:36:18;98059.34;;;5.99;89.34
15670;BME280;18524;45.190;5.732;2022-12-08T21:41:18;98056.69;;;5.87;90.57
15670;BME280;18524;45.190;5.732;2022-12-08T21:46:27;98058.28;;;5.68;93.62
15670;BME280;18524;45.190;5.732;2022-12-08T21:51:17;98035.44;;;5.82;91.55
15670;BME280;18524;45.190;5.732;2022-12-08T21:56:08;98037.44;;;5.79;93.43
15670;BME280;18524;45.190;5.732;2022-12-08T22:01:04;98040.06;;;5.68;96.42
15670;BME280;18524;45.190;5.732;2022-12-08T22:05:54;98047.66;;;5.59;97.53
15670;BME280;18524;45.190;5.732;2022-12-08T22:10:48;98047.16;;;5.65;98.55
15670;BME280;18524;45.190;5.732;2022-12-08T22:15:38;98033.47;;;5.63;98.51
15670;BME280;18524;45.190;5.732;2022-12-08T22:20:29;98031.91;;;5.72;99.64
15670;BME280;18524;45.190;5.732;2022-12-08T22:25:19;98034.75;;;5.69;99.41
15670;BME280;18524;45.190;5.732;2022-12-08T22:30:10;98024.34;;;5.47;99.14
15670;BME280;18524;45.190;5.732;2022-12-08T22:35:00;98030.50;;;5.34;100.00
15670;BME280;18524;45.190;5.732;2022-12-08T22:39:51;98019.06;;;5.26;100.00
15670;BME280;18524;45.190;5.732;2022-12-08T22:44:41;98016.56;;;5.13;100.00
15670;BME280;18524;45.190;5.732;2022-12-08T22:49:32;98013.72;;;5.16;100.00
15670;BME280;18524;45.190;5.732;2022-12-08T22:54:22;98009.22;;;5.18;100.00
15670;BME280;18524;45.190;5.732;2022-12-08T22:59:13;98009.94;;;5.09;100.00
15670;BME280;18524;45.190;5.732;2022-12-08T23:04:03;97990.81;;;4.99;100.00
15670;BME280;18524;45.190;5.732;2022-12-08T23:08:55;97986.56;;;4.98;100.00
15670;BME280;18524;45.190;5.732;2022-12-08T23:13:45;97980.38;;;4.77;100.00
15670;BME280;18524;45.190;5.732;2022-12-08T23:18:40;97974.34;;;4.65;100.00
15670;BME280;18524;45.190;5.732;2022-12-08T23:23:30;97965.50;;;4.79;100.00
15670;BME280;18524;45.190;5.732;2022-12-08T23:28:21;97966.91;;;4.60;100.00
15670;BME280;18524;45.190;5.732;2022-12-08T23:33:11;97939.28;;;4.59;100.00
15670;BME280;18524;45.190;5.732;2022-12-08T23:38:02;97945.91;;;4.52;100.00
15670;BME280;18524;45.190;5.732;2022-12-08T23:42:53;97934.56;;;4.53;100.00
15670;BME280;18524;45.190;5.732;2022-12-08T23:47:43;97914.97;;;4.49;100.00
15670;BME280;18524;45.190;5.732;2022-12-08T23:52:34;97926.53;;;4.56;100.00
15670;BME280;18524;45.190;5.732;2022-12-08T23:57:24;97911.69;;;4.58;100.00
